Time;durP1;ratioP1;P1;durP2;ratioP2;P2;SDS_P1;SDS_P2;PMS_P1;PMS_P2;Temp;Humidity;BMP_temperature;BMP_pressure;BME280_temperature;BME280_humidity;BME280_pressure;Samples;Min_cycle;Max_cycle;Signal;HPM_P1;HPM_P2
2022/06/04 00:00:42;;;;;;;10.35;5.13;;;13.00;99.90;;;;;;5029588;28;20676;-47
2022/06/04 00:03:08;;;;;;;8.73;5.65;;;12.90;99.90;;;;;;5071496;28;20072;-47
2022/06/04 00:05:38;;;;;;;10.98;6.00;;;12.90;99.90;;;;;;5087749;28;20031;-47
2022/06/04 00:08:06;;;;;;;8.88;5.70;;;12.90;99.90;;;;;;5073137;28;20042;-47
2022/06/04 00:16:11;;;;;;;10.10;5.88;;;12.80;99.90;;;;;;5090539;28;20051;-46
2022/06/04 00:18:38;;;;;;;15.20;5.07;;;12.80;99.90;;;;;;5092116;28;20497;-46
2022/06/04 00:21:05;;;;;;;11.68;6.25;;;12.70;99.90;;;;;;5090868;28;20066;-47
2022/06/04 00:23:31;;;;;;;9.05;4.93;;;12.70;99.90;;;;;;5089389;28;20390;-46
2022/06/04 00:25:58;;;;;;;9.47;5.90;;;12.60;99.90;;;;;;5089811;28;20086;-46
2022/06/04 00:28:26;;;;;;;10.75;6.25;;;12.60;99.90;;;;;;5090157;28;20064;-46
2022/06/04 00:30:53;;;;;;;14.32;5.72;;;12.60;99.90;;;;;;5091553;28;20131;-46
2022/06/04 00:33:19;;;;;;;8.30;5.22;;;12.60;99.90;;;;;;5088502;28;20137;-48
2022/06/04 00:35:47;;;;;;;9.77;5.80;;;12.50;99.90;;;;;;5086258;28;20277;-48
2022/06/04 00:38:15;;;;;;;15.25;6.18;;;12.50;99.90;;;;;;5073892;28;20116;-47
2022/06/04 00:40:50;;;;;;;11.38;5.85;;;12.50;99.90;;;;;;5076371;28;20036;-47
2022/06/04 00:43:18;;;;;;;10.77;6.03;;;12.50;99.90;;;;;;5086031;28;20064;-48
2022/06/04 00:46:21;;;;;;;8.77;5.47;;;12.40;99.90;;;;;;5071951;28;20044;-45
2022/06/04 00:48:47;;;;;;;7.15;5.60;;;12.40;99.90;;;;;;5077718;28;20469;-46
2022/06/04 00:51:13;;;;;;;14.00;5.57;;;12.40;99.90;;;;;;5090446;28;20056;-47
2022/06/04 00:53:39;;;;;;;9.55;6.18;;;12.40;99.90;;;;;;5073550;28;20493;-45
2022/06/04 00:56:26;;;;;;;13.70;6.32;;;12.30;99.90;;;;;;5087806;28;20040;-48
2022/06/04 00:59:04;;;;;;;12.23;6.50;;;12.30;99.90;;;;;;5076580;28;20052;-46
2022/06/04 01:01:46;;;;;;;12.35;6.68;;;12.30;99.90;;;;;;5074930;28;20040;-48
2022/06/04 01:04:58;;;;;;;16.17;6.82;;;12.30;99.90;;;;;;5084088;28;20064;-46
2022/06/04 01:07:41;;;;;;;11.80;7.15;;;12.30;99.90;;;;;;5069836;28;20485;-47
2022/06/04 01:10:18;;;;;;;15.65;6.57;;;12.30;99.90;;;;;;5088314;28;20047;-46
2022/06/04 01:13:05;;;;;;;9.90;6.13;;;12.30;99.90;;;;;;5076482;28;20040;-47
2022/06/04 01:15:42;;;;;;;9.45;7.20;;;12.20;99.90;;;;;;5078879;28;20044;-46
2022/06/04 01:18:24;;;;;;;16.55;6.55;;;12.30;99.90;;;;;;5072193;28;20040;-48
2022/06/04 01:21:11;;;;;;;11.98;6.72;;;12.20;99.90;;;;;;5082087;28;20052;-46
2022/06/04 01:24:07;;;;;;;10.80;6.93;;;12.20;99.90;;;;;;5075505;28;20047;-46
2022/06/04 01:26:52;;;;;;;13.13;6.43;;;12.20;99.90;;;;;;5078489;28;20486;-45
2022/06/04 01:29:22;;;;;;;20.20;8.18;;;12.10;99.90;;;;;;5071350;28;20106;-46
2022/06/04 01:32:01;;;;;;;13.95;7.28;;;12.20;99.90;;;;;;5070530;28;20032;-48
2022/06/04 01:34:37;;;;;;;12.93;6.50;;;12.20;99.90;;;;;;5078951;28;20040;-46
2022/06/04 01:37:32;;;;;;;11.33;6.97;;;12.10;99.90;;;;;;5089480;28;20035;-46
2022/06/04 01:42:46;;;;;;;;;;;12.10;99.90;;;;;;5079906;28;20056;-49
2022/06/04 01:45:18;;;;;;;12.20;6.27;;;12.10;99.90;;;;;;5087640;28;19920;-49
2022/06/04 01:47:47;;;;;;;10.95;6.93;;;12.10;99.90;;;;;;5076538;28;20040;-45
2022/06/04 01:50:18;;;;;;;17.40;7.43;;;12.00;99.90;;;;;;5082349;28;20220;-46
2022/06/04 01:52:47;;;;;;;10.07;6.70;;;12.00;99.90;;;;;;5068652;28;20438;-47
2022/06/04 01:55:21;;;;;;;14.25;6.78;;;12.00;99.90;;;;;;5088276;28;20048;-49
2022/06/04 01:57:55;;;;;;;15.07;7.65;;;12.00;99.90;;;;;;5076789;28;20048;-47
2022/06/04 02:00:32;;;;;;;11.23;6.72;;;12.00;99.90;;;;;;5085829;28;20060;-50
2022/06/04 02:03:04;;;;;;;13.65;8.43;;;12.00;99.90;;;;;;5081031;28;20379;-46
2022/06/04 02:05:37;;;;;;;15.95;7.95;;;12.00;99.90;;;;;;5078114;28;20429;-46
2022/06/04 02:08:05;;;;;;;10.30;7.10;;;12.00;99.90;;;;;;5070887;28;20097;-46
2022/06/04 02:10:36;;;;;;;12.98;7.88;;;11.90;99.90;;;;;;5077768;28;20515;-45
2022/06/04 02:13:08;;;;;;;20.23;9.82;;;11.90;99.90;;;;;;5077243;28;20044;-46
2022/06/04 02:15:44;;;;;;;17.95;8.95;;;11.90;99.90;;;;;;5082097;28;20047;-46
2022/06/04 02:18:11;;;;;;;14.07;8.57;;;11.90;99.90;;;;;;5090102;28;20040;-47
2022/06/04 02:20:37;;;;;;;13.25;7.97;;;11.90;99.90;;;;;;5088126;28;20040;-45
2022/06/04 02:23:03;;;;;;;13.05;8.40;;;11.90;99.90;;;;;;5088710;28;20417;-46
2022/06/04 02:25:30;;;;;;;15.27;9.43;;;11.90;99.90;;;;;;5089535;28;20048;-47
2022/06/04 02:27:57;;;;;;;18.83;9.88;;;11.80;99.90;;;;;;5070787;28;20090;-46
2022/06/04 02:30:29;;;;;;;13.48;8.48;;;11.90;99.90;;;;;;5070198;28;20036;-47
2022/06/04 02:32:54;;;;;;;18.17;9.23;;;11.90;99.90;;;;;;5067448;28;20480;-46
2022/06/04 02:35:27;;;;;;;15.87;10.53;;;11.90;99.90;;;;;;5069209;28;20115;-45
2022/06/04 02:38:24;;;;;;;16.88;9.50;;;11.90;99.90;;;;;;5068703;28;20033;-46
2022/06/04 02:41:01;;;;;;;20.98;8.95;;;11.90;99.90;;;;;;5084454;28;20558;-45
2022/06/04 02:43:39;;;;;;;15.05;7.50;;;11.80;99.90;;;;;;5071919;28;20044;-46
2022/06/04 02:46:22;;;;;;;17.38;9.45;;;11.80;99.90;;;;;;5084911;28;20405;-46
2022/06/04 02:49:01;;;;;;;14.35;9.07;;;11.80;99.90;;;;;;5073371;28;20041;-45
2022/06/04 02:51:42;;;;;;;12.18;8.10;;;11.80;99.90;;;;;;5070232;28;20056;-46
2022/06/04 02:54:26;;;;;;;19.17;9.00;;;11.80;99.90;;;;;;5072509;28;20036;-46
2022/06/04 02:56:54;;;;;;;18.05;8.57;;;11.80;99.90;;;;;;5074566;28;20562;-47
2022/06/04 02:59:22;;;;;;;17.08;8.48;;;11.80;99.90;;;;;;5081213;28;20048;-46
2022/06/04 03:01:52;;;;;;;21.73;8.75;;;11.80;99.90;;;;;;5085673;28;20082;-47
2022/06/04 03:04:18;;;;;;;22.58;9.93;;;11.70;99.90;;;;;;5079329;28;20115;-46
2022/06/04 03:06:44;;;;;;;20.52;9.88;;;11.70;99.90;;;;;;5089321;28;20449;-46
2022/06/04 03:09:14;;;;;;;12.35;9.05;;;11.70;99.90;;;;;;5079437;28;20043;-48
2022/06/04 03:11:44;;;;;;;19.08;9.60;;;11.60;99.90;;;;;;5078680;28;20035;-46
2022/06/04 03:14:10;;;;;;;12.25;8.13;;;11.60;99.90;;;;;;5082201;28;20070;-46
2022/06/04 03:16:38;;;;;;;13.93;8.77;;;11.60;99.90;;;;;;5091530;28;20382;-46
2022/06/04 03:19:08;;;;;;;14.80;8.90;;;11.60;99.90;;;;;;5078179;28;20494;-46
2022/06/04 03:21:39;;;;;;;14.13;8.57;;;11.60;99.90;;;;;;5088403;28;20056;-46
2022/06/04 03:24:06;;;;;;;16.58;10.00;;;11.60;99.90;;;;;;5088258;28;20040;-45
2022/06/04 03:26:32;;;;;;;16.40;10.13;;;11.60;99.90;;;;;;5091247;28;20040;-46
2022/06/04 03:28:58;;;;;;;21.35;9.70;;;11.50;99.90;;;;;;5082976;28;20044;-46
2022/06/04 03:31:28;;;;;;;12.85;8.90;;;11.60;99.90;;;;;;5086116;28;20044;-45
2022/06/04 03:33:55;;;;;;;16.42;8.60;;;11.50;99.90;;;;;;5090379;28;20036;-46
2022/06/04 03:36:21;;;;;;;18.92;8.70;;;11.50;99.90;;;;;;5090150;28;20420;-46
2022/06/04 03:38:48;;;;;;;11.43;8.40;;;11.50;99.90;;;;;;5082661;28;20100;-47
2022/06/04 03:41:14;;;;;;;15.25;8.65;;;11.50;99.90;;;;;;5087735;28;20040;-45
2022/06/04 03:43:39;;;;;;;16.90;8.32;;;11.50;99.90;;;;;;5068735;28;20409;-46
2022/06/04 03:46:05;;;;;;;15.20;8.50;;;11.50;99.90;;;;;;5080028;28;20451;-45
2022/06/04 03:48:30;;;;;;;15.20;8.53;;;11.50;99.90;;;;;;5085927;28;20032;-45
2022/06/04 03:50:56;;;;;;;17.77;8.50;;;11.50;99.90;;;;;;5074621;28;20289;-47
2022/06/04 03:53:22;;;;;;;12.75;8.90;;;11.50;99.90;;;;;;5076373;28;20047;-46
2022/06/04 03:55:48;;;;;;;13.20;8.52;;;11.60;99.90;;;;;;5073866;28;20055;-46
2022/06/04 03:58:13;;;;;;;11.25;8.10;;;11.60;99.90;;;;;;5078414;28;20041;-45
2022/06/04 04:00:40;;;;;;;16.87;8.33;;;11.60;99.90;;;;;;5083232;28;20086;-46
2022/06/04 04:03:15;;;;;;;12.95;7.88;;;11.60;99.90;;;;;;5089007;28;20274;-45
2022/06/04 04:05:49;;;;;;;13.43;8.95;;;11.60;99.90;;;;;;5086534;28;20119;-45
2022/06/04 04:08:16;;;;;;;16.95;9.13;;;11.60;99.90;;;;;;5089421;28;20036;-46
2022/06/04 04:10:43;;;;;;;13.05;7.53;;;11.60;99.90;;;;;;5091856;28;20055;-45
2022/06/04 04:13:09;;;;;;;15.88;9.05;;;11.60;99.90;;;;;;5090650;28;20113;-46
2022/06/04 04:15:36;;;;;;;13.05;7.35;;;11.60;99.90;;;;;;5073622;28;20040;-46
2022/06/04 04:18:02;;;;;;;18.88;8.90;;;11.60;99.90;;;;;;5071352;28;20490;-46
2022/06/04 04:20:30;;;;;;;12.82;8.10;;;11.60;99.90;;;;;;5070324;28;20040;-46
2022/06/04 04:22:57;;;;;;;12.52;8.23;;;11.60;99.90;;;;;;5069643;28;20120;-47
2022/06/04 04:25:25;;;;;;;13.75;8.27;;;11.60;99.90;;;;;;5085444;28;20036;-45
2022/06/04 04:27:52;;;;;;;12.98;8.48;;;11.60;99.90;;;;;;5090972;28;20039;-45
2022/06/04 04:30:21;;;;;;;15.40;8.05;;;11.60;99.90;;;;;;5091260;28;20040;-45
2022/06/04 04:32:48;;;;;;;15.10;8.32;;;11.60;99.90;;;;;;5090949;28;20131;-46
2022/06/04 04:35:19;;;;;;;12.63;7.72;;;11.70;99.90;;;;;;5078675;28;20040;-46
2022/06/04 04:37:45;;;;;;;12.50;7.47;;;11.70;99.90;;;;;;5073977;28;20098;-45
2022/06/04 04:40:14;;;;;;;12.97;7.63;;;11.70;99.90;;;;;;5088097;28;20067;-45
2022/06/04 04:42:39;;;;;;;16.42;8.63;;;11.70;99.90;;;;;;5071004;28;20366;-45
2022/06/04 04:45:09;;;;;;;13.85;7.47;;;11.70;99.90;;;;;;5084198;28;20307;-46
2022/06/04 04:47:36;;;;;;;14.00;8.05;;;11.80;99.90;;;;;;5072310;28;20039;-45
2022/06/04 04:50:04;;;;;;;15.00;8.07;;;11.80;99.90;;;;;;5072704;28;20401;-46
2022/06/04 04:52:30;;;;;;;14.00;7.88;;;11.90;99.90;;;;;;5081961;28;20044;-46
2022/06/04 04:54:56;;;;;;;14.23;8.05;;;11.90;99.90;;;;;;5080625;28;20047;-47
2022/06/04 04:57:22;;;;;;;11.03;7.60;;;11.90;99.90;;;;;;5072009;28;20076;-46
2022/06/04 04:59:48;;;;;;;17.52;8.30;;;11.90;99.90;;;;;;5084390;28;20327;-47
2022/06/04 05:02:14;;;;;;;20.38;7.28;;;12.00;99.90;;;;;;5072226;28;20032;-46
2022/06/04 05:04:39;;;;;;;12.43;7.45;;;12.10;99.90;;;;;;5071014;28;20121;-45
2022/06/04 05:07:06;;;;;;;14.05;8.52;;;12.10;99.90;;;;;;5086683;28;20043;-45
2022/06/04 05:09:32;;;;;;;16.13;8.25;;;12.20;99.90;;;;;;5079252;28;20515;-47
2022/06/04 05:11:57;;;;;;;14.27;7.70;;;12.30;99.90;;;;;;5087419;28;20036;-46
2022/06/04 05:14:23;;;;;;;16.67;8.15;;;12.30;99.90;;;;;;5074862;28;20492;-45
2022/06/04 05:16:48;;;;;;;14.52;8.05;;;12.40;99.90;;;;;;5070417;28;20048;-46
2022/06/04 05:19:14;;;;;;;9.48;7.82;;;12.40;99.90;;;;;;5075142;28;20398;-46
2022/06/04 05:21:46;;;;;;;13.27;7.57;;;12.50;99.90;;;;;;5078969;28;20052;-46
2022/06/04 05:24:24;;;;;;;10.90;7.60;;;12.60;99.90;;;;;;5070651;28;20040;-49
2022/06/04 05:26:50;;;;;;;11.00;6.95;;;12.60;99.90;;;;;;5069477;28;20386;-46
2022/06/04 05:29:17;;;;;;;16.63;7.22;;;12.70;99.90;;;;;;5073119;28;20070;-47
2022/06/04 05:31:45;;;;;;;15.68;7.57;;;12.70;99.90;;;;;;5088266;28;20425;-46
2022/06/04 05:34:12;;;;;;;12.13;6.78;;;12.80;99.90;;;;;;5072827;28;20040;-46
2022/06/04 05:36:39;;;;;;;11.13;7.10;;;12.90;99.90;;;;;;5083740;28;20040;-46
2022/06/04 05:39:06;;;;;;;13.88;6.60;;;13.00;99.90;;;;;;5080003;28;20089;-46
2022/06/04 05:41:32;;;;;;;10.55;6.82;;;13.00;99.90;;;;;;5078810;28;20046;-47
2022/06/04 05:43:58;;;;;;;11.73;6.28;;;13.10;99.90;;;;;;5070057;28;20489;-46
2022/06/04 05:46:23;;;;;;;10.23;7.28;;;13.20;99.90;;;;;;5085750;28;20078;-46
2022/06/04 05:48:50;;;;;;;9.65;6.82;;;13.20;99.90;;;;;;5080476;28;20044;-45
2022/06/04 05:51:20;;;;;;;7.97;6.38;;;13.30;99.90;;;;;;5084163;28;20044;-46
2022/06/04 05:53:46;;;;;;;9.68;6.45;;;13.40;99.90;;;;;;5079185;28;20044;-46
2022/06/04 05:56:19;;;;;;;9.75;6.70;;;13.40;99.90;;;;;;5070615;28;20036;-47
2022/06/04 05:58:46;;;;;;;14.93;7.22;;;13.50;99.90;;;;;;5079378;28;20058;-46
2022/06/04 06:01:14;;;;;;;9.95;5.82;;;13.60;99.90;;;;;;5071686;28;20091;-45
2022/06/04 06:03:40;;;;;;;12.32;6.72;;;13.70;99.90;;;;;;5070441;28;20044;-45
2022/06/04 06:06:14;;;;;;;9.10;6.00;;;13.70;99.90;;;;;;5089061;28;20536;-45
2022/06/04 06:08:40;;;;;;;10.95;6.28;;;13.70;99.90;;;;;;5077234;28;20123;-45
2022/06/04 06:11:11;;;;;;;8.40;5.85;;;13.80;99.90;;;;;;5089565;28;20120;-46
2022/06/04 06:13:38;;;;;;;9.07;6.35;;;13.80;99.90;;;;;;5067680;28;20033;-46
2022/06/04 06:16:07;;;;;;;;;;;13.80;99.90;;;;;;5085115;28;20039;-46
2022/06/04 06:18:34;;;;;;;6.70;5.00;;;13.90;99.90;;;;;;5089933;28;20360;-47
2022/06/04 06:21:04;;;;;;;9.30;5.93;;;13.90;99.90;;;;;;5090004;28;20081;-45
2022/06/04 06:23:31;;;;;;;9.25;5.57;;;14.00;99.90;;;;;;5076761;28;20036;-45
2022/06/04 06:25:56;;;;;;;11.25;5.35;;;14.00;99.90;;;;;;5074440;28;20493;-47
2022/06/04 06:28:22;;;;;;;8.55;5.00;;;14.10;99.90;;;;;;5075286;28;20029;-47
2022/06/04 06:30:49;;;;;;;7.85;5.47;;;14.20;99.90;;;;;;5085334;28;20040;-48
2022/06/04 06:33:14;;;;;;;9.52;5.45;;;14.30;99.90;;;;;;5067871;28;20037;-48
2022/06/04 06:35:40;;;;;;;7.85;5.85;;;14.40;99.90;;;;;;5082459;28;20047;-49
2022/06/04 06:38:05;;;;;;;11.15;5.40;;;14.40;99.90;;;;;;5087681;28;20111;-49
2022/06/04 06:40:31;;;;;;;13.60;5.28;;;14.50;99.90;;;;;;5081651;28;20044;-49
2022/06/04 06:42:57;;;;;;;8.77;4.57;;;14.60;99.90;;;;;;5088441;28;20036;-47
2022/06/04 06:45:22;;;;;;;251.77;28.02;;;14.60;99.90;;;;;;5083296;28;20039;-48
2022/06/04 06:47:48;;;;;;;16.38;4.97;;;14.70;99.90;;;;;;5073335;28;20032;-47
2022/06/04 06:50:15;;;;;;;12.80;4.57;;;14.70;99.90;;;;;;5074358;28;20115;-49
2022/06/04 06:52:41;;;;;;;30.27;6.10;;;14.80;99.90;;;;;;5071125;28;20040;-50
2022/06/04 06:55:07;;;;;;;7.45;4.60;;;14.80;99.90;;;;;;5073424;28;20040;-48
2022/06/04 06:57:32;;;;;;;6.35;4.53;;;14.90;99.90;;;;;;5077519;28;20040;-48
2022/06/04 06:59:58;;;;;;;7.50;4.32;;;15.00;99.90;;;;;;5092974;28;20422;-48
2022/06/04 07:02:24;;;;;;;6.80;3.70;;;15.10;99.90;;;;;;5076641;28;20418;-49
2022/06/04 07:04:49;;;;;;;7.32;4.70;;;15.10;99.90;;;;;;5074032;28;20062;-48
2022/06/04 07:07:15;;;;;;;4.93;4.22;;;15.20;99.90;;;;;;5072773;28;20094;-48
2022/06/04 07:09:41;;;;;;;9.52;5.20;;;15.20;99.90;;;;;;5072934;28;20032;-49
2022/06/04 07:12:09;;;;;;;8.68;4.50;;;15.30;99.90;;;;;;5072412;28;20119;-48
2022/06/04 07:14:35;;;;;;;10.43;4.75;;;15.40;99.90;;;;;;5072347;28;20086;-48
2022/06/04 07:17:03;;;;;;;11.10;4.47;;;15.50;99.90;;;;;;5073967;28;20477;-48
2022/06/04 07:19:29;;;;;;;9.40;5.30;;;15.60;99.90;;;;;;5072598;28;20529;-49
2022/06/04 07:21:55;;;;;;;5.15;3.60;;;15.60;99.90;;;;;;5071687;28;20032;-48
2022/06/04 07:24:22;;;;;;;7.50;4.40;;;15.70;99.90;;;;;;5070810;28;20051;-48
2022/06/04 07:26:47;;;;;;;5.30;3.83;;;15.80;99.90;;;;;;5073518;28;20039;-46
2022/06/04 07:29:13;;;;;;;10.23;4.13;;;15.90;99.90;;;;;;5089665;28;20119;-46
2022/06/04 07:31:39;;;;;;;5.20;4.00;;;15.90;99.90;;;;;;5083642;28;20503;-47
2022/06/04 07:34:05;;;;;;;;;;;16.00;99.90;;;;;;5091530;28;20036;-48
2022/06/04 07:36:34;;;;;;;9.90;4.32;;;16.00;99.90;;;;;;5089084;28;19916;-47
2022/06/04 07:39:00;;;;;;;4.50;4.10;;;16.10;99.90;;;;;;5088880;28;20493;-46
2022/06/04 07:41:35;;;;;;;7.68;4.03;;;16.20;99.90;;;;;;5089651;28;20524;-46
2022/06/04 07:44:01;;;;;;;3.97;3.15;;;16.20;99.90;;;;;;5077694;28;20453;-46
2022/06/04 07:46:29;;;;;;;4.32;3.33;;;16.30;99.90;;;;;;5082554;28;20249;-47
2022/06/04 07:49:00;;;;;;;5.05;2.78;;;16.40;99.90;;;;;;5079169;28;20047;-46
2022/06/04 07:51:27;;;;;;;7.20;3.63;;;16.50;99.90;;;;;;5087578;28;20043;-46
2022/06/04 07:53:53;;;;;;;4.18;3.58;;;16.60;99.90;;;;;;5079635;28;20047;-46
2022/06/04 07:56:20;;;;;;;9.43;3.42;;;16.60;99.90;;;;;;5090682;28;20048;-46
2022/06/04 07:58:46;;;;;;;6.72;3.03;;;16.70;99.90;;;;;;5088418;28;20109;-46
2022/06/04 08:01:15;;;;;;;3.72;3.30;;;16.80;99.90;;;;;;5084270;28;20040;-46
2022/06/04 08:03:42;;;;;;;3.72;3.25;;;16.80;99.90;;;;;;5080584;28;20504;-46
2022/06/04 08:06:10;;;;;;;8.32;3.60;;;16.90;99.90;;;;;;5084486;28;20044;-47
2022/06/04 08:08:36;;;;;;;12.48;3.03;;;17.00;99.90;;;;;;5072506;28;20037;-47
2022/06/04 08:11:30;;;;;;;4.53;2.67;;;17.10;99.90;;;;;;5083518;28;20058;-46
2022/06/04 08:13:49;;;;;;;;;;;17.20;99.90;;;;;;5073202;28;20145;-46
2022/06/04 08:16:15;;;;;;;3.58;2.97;;;17.30;99.90;;;;;;5087749;28;19974;-46
2022/06/04 08:18:40;;;;;;;4.50;3.13;;;17.40;99.90;;;;;;5081298;28;20488;-47
2022/06/04 08:21:06;;;;;;;8.75;2.72;;;17.50;99.90;;;;;;5088241;28;20465;-46
2022/06/04 08:23:32;;;;;;;;;;;17.60;99.30;;;;;;5078384;28;20365;-46
2022/06/04 08:25:58;;;;;;;3.97;2.75;;;17.60;98.70;;;;;;5086339;28;19923;-46
2022/06/04 08:28:24;;;;;;;4.32;3.28;;;17.70;98.90;;;;;;5089471;28;20039;-47
2022/06/04 08:31:03;;;;;;;5.13;2.47;;;17.70;98.70;;;;;;5080520;28;20043;-45
2022/06/04 08:33:29;;;;;;;8.30;4.03;;;17.80;98.50;;;;;;5085268;28;20121;-47
2022/06/04 08:35:55;;;;;;;4.28;2.75;;;17.90;99.20;;;;;;5085117;28;20036;-46
2022/06/04 08:38:20;;;;;;;4.00;2.67;;;17.90;98.40;;;;;;5091022;28;20043;-46
2022/06/04 08:40:51;;;;;;;6.45;3.42;;;17.90;98.40;;;;;;5085411;28;20067;-46
2022/06/04 08:43:23;;;;;;;4.78;2.65;;;17.90;98.20;;;;;;5085598;28;20036;-46
2022/06/04 08:45:48;;;;;;;7.57;2.83;;;17.90;98.20;;;;;;5075910;28;20051;-46
2022/06/04 08:48:28;;;;;;;6.00;3.20;;;17.90;98.50;;;;;;5079964;28;20037;-46
2022/06/04 08:50:54;;;;;;;4.45;3.22;;;17.90;98.70;;;;;;5086899;28;20043;-47
2022/06/04 08:53:24;;;;;;;4.22;3.70;;;18.00;98.80;;;;;;5086254;28;20040;-47
2022/06/04 08:59:00;;;;;;;4.35;3.33;;;18.20;98.40;;;;;;5075591;28;20056;-46
2022/06/04 09:01:45;;;;;;;6.63;3.42;;;18.20;98.20;;;;;;5074600;28;20044;-46
2022/06/04 09:04:31;;;;;;;6.10;3.58;;;18.30;98.20;;;;;;5076433;28;20085;-46
2022/06/04 09:07:25;;;;;;;6.25;3.85;;;18.30;98.40;;;;;;5086700;28;20115;-47
2022/06/04 09:10:16;;;;;;;4.90;3.97;;;18.30;98.00;;;;;;5089480;28;20040;-46
2022/06/04 09:12:48;;;;;;;5.50;3.47;;;18.30;98.00;;;;;;5077460;28;20032;-48
2022/06/04 09:15:22;;;;;;;5.07;3.50;;;18.20;98.20;;;;;;5085198;28;20047;-46
2022/06/04 09:17:53;;;;;;;6.63;4.13;;;18.20;98.00;;;;;;5086687;28;20405;-46
2022/06/04 09:20:42;;;;;;;10.43;4.50;;;18.20;97.90;;;;;;5088042;28;20068;-47
2022/06/04 09:23:11;;;;;;;4.57;3.95;;;18.20;98.10;;;;;;5063831;28;20052;-46
2022/06/04 09:26:00;;;;;;;3.63;3.20;;;18.20;97.90;;;;;;5087588;28;20032;-46
2022/06/04 09:28:39;;;;;;;4.72;4.10;;;18.20;98.20;;;;;;5083779;28;20067;-47
2022/06/04 09:31:26;;;;;;;6.53;3.42;;;18.30;98.40;;;;;;5079147;28;20082;-47
2022/06/04 09:34:02;;;;;;;4.40;4.00;;;18.30;97.70;;;;;;5075691;28;20044;-46
2022/06/04 09:36:34;;;;;;;6.50;4.57;;;18.30;97.90;;;;;;5087289;28;20090;-46
2022/06/04 09:39:16;;;;;;;7.47;4.53;;;18.30;97.90;;;;;;5088481;28;20177;-46
2022/06/04 09:41:57;;;;;;;4.50;4.10;;;18.30;97.80;;;;;;5086563;28;20463;-46
2022/06/04 09:44:24;;;;;;;7.22;4.43;;;18.30;98.00;;;;;;5081340;28;20125;-47
2022/06/04 09:46:57;;;;;;;6.72;3.90;;;18.40;98.00;;;;;;5088987;28;20648;-48
2022/06/04 09:49:37;;;;;;;8.07;4.25;;;18.40;97.70;;;;;;5087255;28;20539;-47
2022/06/04 09:52:23;;;;;;;8.60;4.25;;;18.50;97.90;;;;;;5084506;28;20513;-46
2022/06/04 09:55:00;;;;;;;4.97;4.38;;;18.50;97.60;;;;;;5074517;28;20090;-46
2022/06/04 09:57:35;;;;;;;5.82;3.97;;;18.60;97.60;;;;;;5086558;28;20040;-46
2022/06/04 10:00:04;;;;;;;5.13;3.50;;;18.70;97.40;;;;;;5079508;28;20047;-48
2022/06/04 10:02:29;;;;;;;5.65;4.13;;;18.80;97.30;;;;;;5085066;28;20106;-47
2022/06/04 10:05:06;;;;;;;7.20;4.32;;;18.90;97.30;;;;;;5084823;28;20040;-46
2022/06/04 10:07:41;;;;;;;5.40;4.38;;;19.00;97.00;;;;;;5072519;28;20036;-47
2022/06/04 10:10:33;;;;;;;4.47;3.72;;;19.20;96.30;;;;;;5079670;28;20047;-46
2022/06/04 10:15:48;;;;;;;5.13;3.72;;;19.30;97.60;;;;;;5081970;28;20086;-46
2022/06/04 10:18:30;;;;;;;6.25;3.05;;;19.40;96.60;;;;;;5079935;28;20482;-47
2022/06/04 10:21:18;;;;;;;8.60;3.92;;;19.50;96.10;;;;;;5087483;28;20043;-45
2022/06/04 10:23:48;;;;;;;4.78;3.22;;;19.50;96.60;;;;;;5078851;28;20040;-46
2022/06/04 10:26:38;;;;;;;5.85;4.82;;;19.60;96.10;;;;;;5083377;28;20227;-46
2022/06/04 10:29:16;;;;;;;6.95;4.07;;;19.70;96.30;;;;;;5080750;28;20044;-46
2022/06/04 10:32:19;;;;;;;5.75;3.58;;;19.70;96.00;;;;;;5083530;28;20040;-46
2022/06/04 10:35:17;;;;;;;5.50;3.30;;;19.80;95.70;;;;;;5085234;28;20509;-46
2022/06/04 10:38:05;;;;;;;4.15;3.38;;;19.90;95.50;;;;;;5084604;28;20067;-47
2022/06/04 10:40:47;;;;;;;4.95;4.45;;;19.90;94.70;;;;;;5086234;28;20028;-47
2022/06/04 10:43:32;;;;;;;6.47;4.28;;;19.90;95.50;;;;;;5087751;28;20077;-47
2022/06/04 10:46:23;;;;;;;5.38;3.78;;;20.00;95.20;;;;;;5080403;28;20097;-47
2022/06/04 10:49:13;;;;;;;5.53;4.05;;;20.20;95.70;;;;;;5079261;28;20040;-46
2022/06/04 10:51:57;;;;;;;4.50;3.75;;;20.30;94.90;;;;;;5081870;28;20133;-46
2022/06/04 10:54:41;;;;;;;4.18;3.67;;;20.40;95.40;;;;;;5081144;28;20531;-48
2022/06/04 10:57:28;;;;;;;4.40;3.67;;;20.40;94.70;;;;;;5089279;28;20036;-47
2022/06/04 11:00:20;;;;;;;5.50;4.40;;;20.50;94.70;;;;;;5082175;28;20040;-46
2022/06/04 11:03:02;;;;;;;4.47;3.95;;;20.60;94.20;;;;;;5072834;28;20063;-46
2022/06/04 11:05:40;;;;;;;4.93;3.00;;;20.70;93.80;;;;;;5083337;28;20036;-47
2022/06/04 11:08:27;;;;;;;4.78;3.47;;;20.70;93.40;;;;;;5086960;28;20040;-46
2022/06/04 11:11:04;;;;;;;4.32;3.47;;;20.80;93.80;;;;;;5076745;28;20036;-47
2022/06/04 11:13:38;;;;;;;6.47;3.38;;;20.80;93.40;;;;;;5084940;28;20040;-46
2022/06/04 11:16:10;;;;;;;4.20;3.20;;;20.80;93.10;;;;;;5088211;28;20047;-47
2022/06/04 11:18:48;;;;;;;4.47;3.60;;;20.80;93.50;;;;;;5086478;28;20039;-46
2022/06/04 11:21:19;;;;;;;5.13;3.83;;;20.80;92.60;;;;;;5084221;28;20036;-49
2022/06/04 11:24:02;;;;;;;34.75;5.43;;;20.90;93.30;;;;;;5073258;28;20037;-46
2022/06/04 11:26:38;;;;;;;3.88;3.35;;;20.90;93.40;;;;;;5087303;28;20032;-46
2022/06/04 11:29:05;;;;;;;6.47;3.83;;;21.00;93.60;;;;;;5076845;28;20444;-46
2022/06/04 11:32:00;;;;;;;4.63;3.92;;;21.10;92.80;;;;;;5078038;28;20513;-47
2022/06/04 11:35:09;;;;;;;4.15;3.75;;;21.10;92.70;;;;;;5087982;28;20458;-46
2022/06/04 11:37:53;;;;;;;8.45;4.25;;;21.20;93.00;;;;;;5082359;28;20863;-46
2022/06/04 11:40:32;;;;;;;6.30;5.18;;;21.30;93.40;;;;;;5076294;28;20093;-46
2022/06/04 11:43:01;;;;;;;5.53;4.45;;;21.30;93.50;;;;;;5079830;28;20044;-46
2022/06/04 11:45:40;;;;;;;6.50;5.30;;;21.30;93.30;;;;;;5079989;28;20040;-49
2022/06/04 11:48:43;;;;;;;6.18;3.60;;;21.40;92.50;;;;;;5083429;28;20451;-48
2022/06/04 11:51:26;;;;;;;8.60;3.85;;;21.40;92.60;;;;;;5065351;28;20655;-48
2022/06/04 11:54:14;;;;;;;4.72;3.85;;;21.50;92.50;;;;;;5079893;28;20032;-47
2022/06/04 11:56:51;;;;;;;4.68;3.00;;;21.50;90.70;;;;;;5073340;28;20467;-46
2022/06/04 11:59:26;;;;;;;5.68;3.00;;;21.50;91.60;;;;;;5075842;28;20036;-47
2022/06/04 12:02:05;;;;;;;3.40;3.00;;;21.60;91.30;;;;;;5081153;28;20113;-49
2022/06/04 12:04:43;;;;;;;5.35;2.65;;;21.50;89.60;;;;;;5078225;28;20047;-47
2022/06/04 12:07:15;;;;;;;4.50;2.53;;;21.50;90.80;;;;;;5080460;28;20036;-47
2022/06/04 12:10:25;;;;;;;3.55;2.50;;;21.50;91.00;;;;;;5080007;28;20662;-47
2022/06/04 12:13:04;;;;;;;4.15;2.17;;;21.60;91.00;;;;;;5070459;28;20043;-47
2022/06/04 12:15:45;;;;;;;3.97;1.90;;;21.70;91.10;;;;;;5073013;28;20044;-47
2022/06/04 12:18:33;;;;;;;3.38;1.98;;;21.80;91.10;;;;;;5074912;28;20386;-47
2022/06/04 12:26:41;;;;;;;4.67;2.20;;;22.10;90.00;;;;;;5077766;28;20123;-47
2022/06/04 12:29:28;;;;;;;5.03;2.15;;;22.10;88.20;;;;;;5078504;28;20111;-47
2022/06/04 12:31:57;;;;;;;3.33;1.98;;;22.00;88.40;;;;;;5073716;28;20032;-47
2022/06/04 12:34:29;;;;;;;4.30;2.45;;;22.00;89.30;;;;;;5069351;28;20552;-47
2022/06/04 12:36:55;;;;;;;3.33;1.92;;;22.00;88.20;;;;;;5076479;28;20040;-46
2022/06/04 12:39:30;;;;;;;2.50;1.50;;;22.10;88.80;;;;;;5076953;28;20032;-47
2022/06/04 12:41:59;;;;;;;4.85;1.75;;;22.20;87.60;;;;;;5072177;28;20752;-46
2022/06/04 12:44:35;;;;;;;2.03;1.83;;;22.20;87.20;;;;;;5076743;28;20165;-47
2022/06/04 12:47:26;;;;;;;4.35;2.80;;;22.30;86.10;;;;;;5072733;28;20045;-46
2022/06/04 12:50:16;;;;;;;2.08;1.48;;;22.30;85.90;;;;;;5075037;28;20036;-46
2022/06/04 12:52:47;;;;;;;6.50;2.17;;;22.30;88.90;;;;;;5074777;28;20068;-47
2022/06/04 12:55:47;;;;;;;5.70;1.98;;;22.40;87.60;;;;;;5083717;28;20045;-46
2022/06/04 12:58:45;;;;;;;6.25;1.40;;;22.40;86.70;;;;;;5073587;28;20406;-46
2022/06/04 13:01:18;;;;;;;5.50;2.03;;;22.40;84.90;;;;;;5079594;28;20033;-47
2022/06/04 13:03:47;;;;;;;8.77;1.35;;;22.20;82.60;;;;;;5072769;28;20528;-47
2022/06/04 13:06:12;;;;;;;5.63;1.58;;;22.10;81.60;;;;;;5074936;28;20232;-47
2022/06/04 13:08:43;;;;;;;;;;;22.00;83.30;;;;;;5071965;28;20046;-46
2022/06/04 13:11:34;;;;;;;2.85;1.20;;;22.00;82.80;;;;;;5068876;28;19916;-46
2022/06/04 13:14:24;;;;;;;3.15;1.58;;;22.10;82.00;;;;;;5074167;28;20126;-46
2022/06/04 13:16:55;;;;;;;1.95;1.15;;;22.10;82.10;;;;;;5072247;28;20047;-47
2022/06/04 13:19:24;;;;;;;2.13;1.25;;;22.20;81.70;;;;;;5083469;28;20044;-46
2022/06/04 13:21:51;;;;;;;3.47;1.08;;;22.20;82.70;;;;;;5057547;28;20044;-47
2022/06/04 13:24:24;;;;;;;4.93;1.48;;;22.10;81.90;;;;;;5067108;28;20050;-47
2022/06/04 13:27:19;;;;;;;3.90;1.65;;;22.10;81.70;;;;;;5072824;28;20147;-46
2022/06/04 13:29:56;;;;;;;4.85;1.38;;;22.10;81.90;;;;;;5073009;28;20087;-47
2022/06/04 13:32:22;;;;;;;4.35;1.58;;;22.00;81.10;;;;;;5069626;28;20029;-47